• Join FlightAware (Why Join?)
  • Login
  • US Flag 
01:18PM EDT


 

Airport Tracker/Info


-or-


 

Live Flight TrackerFlight Track Log ✈ SWA718 ✈ 24-Apr-2013 ✈ KMDW - KOMA

Flight Track Log - Related Links

Times and Time Zones

All times are in EDT time to prevent confusion due to time zone crossing. See the SWA718 flight status page for this flight to view local times or setup timezone preferences in your user account.

Time Position Orientation Groundspeed Altitude Reporting Facility
EDT Latitude Longitude Course Direction KTS MPH feet Rate Location/Type
11:32PM 41.7647 -87.8044 270° West 157 181 3,400  Level Chicago Center
11:33PM 41.7350 -87.8933 246° West 217 250 4,000 1,680 Climbing Chicago Center
11:34PM 41.7419 -87.9794 276° West 235 270 6,900 3,480 Climbing Chicago Center
11:35PM 41.7508 -88.0703 278° West 246 283 11,100 2,460 Climbing Chicago Center
11:36PM 41.7561 -88.1667 274° West 260 299 12,000 1,080 Climbing Chicago Center
11:37PM 41.7333 -88.5307 270° West  Level FlightAware Approximate
11:37PM 41.7514 -88.2697 267° West 277 319 13,400  Level Chicago Center
11:38PM 41.7464 -88.3931 267° West 327 376 17,200 3,420 Climbing Chicago Center
11:39PM 41.7425 -88.5197 268° West 340 391 20,400 2,940 Climbing Chicago Center
11:40PM 41.7372 -88.6522 267° West 355 409 23,200 3,060 Climbing Chicago Center
11:41PM 41.7311 -88.8167 267° West 370 426 26,700 2,820 Climbing Chicago Center
11:42PM 41.7292 -88.9547 269° West 372 428 29,000 2,400 Climbing Chicago Center
11:43PM 41.7267 -89.0950 269° West 379 436 31,600 2,220 Climbing Chicago Center
11:44PM 41.7219 -89.2333 267° West 377 434 33,600 1,800 Climbing Chicago Center
11:45PM 41.7175 -89.3711 268° West 373 429 35,300 1,140 Climbing Chicago Center
11:46PM 41.7117 -89.5097 267° West 376 433 36,000 300 Climbing Chicago Center
11:47PM 41.7075 -89.6606 268° West 375 432 36,000  Level Chicago Center
11:48PM 41.7022 -89.7972 267° West 371 427 36,000  Level Chicago Center
11:49PM 41.6972 -89.9342 267° West 370 426 36,000  Level Chicago Center
11:50PM 41.6917 -90.0719 267° West 372 428 36,000  Level Chicago Center
11:51PM 41.6867 -90.2089 267° West 371 427 36,000  Level Chicago Center
11:52PM 41.6781 -90.3522 265° West 386 444 36,000  Level Chicago Center
11:53PM 41.6733 -90.4878 267° West 372 428 36,000  Level Chicago Center
11:54PM 41.6681 -90.6203 267° West 370 426 36,000  Level Chicago Center
11:55PM 41.6603 -90.7614 266° West 376 433 36,000  Level Chicago Center
11:56PM 41.6525 -90.9264 266° West 374 430 36,000  Level Chicago Center
11:57PM 41.6458 -91.0636 266° West 375 432 36,000  Level Chicago Center
11:58PM 41.6383 -91.2025 266° West 375 432 36,000  Level Chicago Center
11:59PM 41.6322 -91.3417 267° West 378 435 36,000  Level Chicago Center
12:00AM 41.6247 -91.4814 266° West 378 435 36,000  Level Chicago Center
12:01AM 41.6164 -91.6181 265° West 373 429 36,000  Level Chicago Center
12:02AM 41.6103 -91.7544 267° West 370 426 36,000  Level Chicago Center
12:03AM 41.6025 -91.8894 266° West 367 422 36,000  Level Chicago Center
12:04AM 41.5950 -92.0261 266° West 369 425 36,000  Level Chicago Center
12:05AM 41.5864 -92.1639 265° West 373 429 36,000  Level Chicago Center
12:06AM 41.5772 -92.3028 265° West 376 433 36,000  Level Chicago Center
12:07AM 41.5692 -92.4406 266° West 377 434 36,000  Level Chicago Center
12:08AM 41.5589 -92.6042 265° West 373 429 36,000  Level Chicago Center
12:09AM 41.5522 -92.7139 265° West 373 429 36,000  Level Minneapolis Center
12:10AM 41.5422 -92.8508 264° West 375 432 36,000  Level Minneapolis Center
12:11AM 41.5336 -92.9867 265° West 374 430 36,000  Level Minneapolis Center
12:12AM 41.5222 -93.1500 265° West 372 428 36,000  Level Minneapolis Center
12:13AM 41.5100 -93.2567 261° West 370 426 36,000  Level Minneapolis Center
12:14AM 41.4922 -93.4211 262° West 375 432 36,000  Level Minneapolis Center
12:15AM 41.4800 -93.5542 263° West 370 426 36,000  Level Minneapolis Center
12:16AM 41.4667 -93.6892 263° West 370 426 36,000 -240 Level Minneapolis Center
12:17AM 41.4481 -93.8517 261° West 372 428 35,600 -1,440 Descending Minneapolis Center
12:18AM 41.4342 -93.9847 262° West 368 423 33,200 -2,760 Descending Minneapolis Center
12:19AM 41.4203 -94.1128 262° West 358 412 30,100 -3,300 Descending Minneapolis Center
12:20AM 41.4044 -94.2619 262° West 354 407 26,600 -3,000 Descending Minneapolis Center
12:22AM 41.3892 -94.3919 261° West 354 407 24,100 -2,340 Descending Minneapolis Center
12:23AM 41.3719 -94.5375 261° West 337 388 21,500 -2,100 Descending Minneapolis Center
12:24AM 41.3589 -94.6542 262° West 324 373 19,500 -1,860 Descending Minneapolis Center
12:25AM 41.3469 -94.7644 262° West 311 358 17,800 -1,740 Descending Minneapolis Center
12:26AM 41.3333 -94.8731 261° West 304 350 16,100 -1,260 Descending Minneapolis Center
12:27AM 41.3322 -94.9878 269° West 289 333 15,400 -2,040 Descending Minneapolis Center
12:28AM 41.3203 -95.0808 260° West 295 339 12,400 -2,580 Descending Minneapolis Center
12:29AM 41.3042 -95.2078 260° West 303 349 10,200 -1,560 Descending Minneapolis Center
12:30AM 41.2917 -95.2928 259° West 218 251 9,100 -1,440 Descending Minneapolis Center
12:31AM 41.2808 -95.3775 260° West 230 265 7,300 -1,680 Descending Minneapolis Center
12:32AM 41.2703 -95.4647 261° West 240 276 5,800 -1,560 Descending Minneapolis Center
12:33AM 41.2572 -95.5494 258° West 236 272 4,200 -1,440 Descending Minneapolis Center
12:34AM 41.2447 -95.6397 260° West 234 269 2,900 -660 Descending Minneapolis Center
12:35AM 41.2336 -95.7242 260° West 232 267 2,900  Level Minneapolis Center
12:36AM 41.2236 -95.7947 259° West 184 212 3,000 -300 Climbing Minneapolis Center
12:37AM 41.2369 -95.8347 294° West 115 132 2,300 -660 Descending Minneapolis Center
12:38AM 41.2614 -95.8597 322° Northwest 105 121 1,700 -540 Descending Minneapolis Center
12:39AM 41.2861 -95.8792 329° Northwest 119 137 1,200 -480 Descending Minneapolis Center
12:41AM 41.3000 -95.8833 270° West  Level FlightAware Approximate